Home PIREPS Pireps

Flight BEL2629

  • Submitted By: Giulio Di Donato
  • Departure Airport: Bruxelles National (EBBR)
  • Arrival Airport: airport Hamburg-Fuhlsbuttel (EDDH)
  • Aircraft: A319-111 (OO-SSU)
  • Flight Time: 01.20
  • Date Submitted: 25/01/2015
  • Status: Accepted
Flight Details
Gross Revenue:
(123 load / € 0.00 per unit
€ 0.00
Fuel Cost:
(3016 fuel used @ 5.1 / unit)
€ 15,381.60

Additional Log Information:

View Log

Aircraft Used in flight is Airbus A320 NEO AIR BERLIN ONE WORLD D-ABMS
22:35 Brakes are On
22:35 Brakes are Released
22:41 Brakes are On
22:44 Brakes are Released
22:46 You Took off @ 151 Knots and Flaps at Position 2
Departure Weather
EBBR 252120Z 21009KT 9000 -RA BKN024 04/03 Q1028 NOSIGrn
22:46 Landing Gear Up @ 155 Knots and 160 Feet
22:48 You exceeded maximum bank angle
22:50 Above FL100 you need to switch of the landing lights
23:33 Above FL100 you need to switch of the landing lights
23:38 Below 10000 feet you are not allowed to go over 250 knots
23:41 Landing Gear Down @ 139 Knots and 2980 Feet
23:45 You Landed @ 133 Knots and with -500 Vertical Speed
Arrival Weather
EDDH 252220Z 22005KT 0800 R23/1100V1500N R15/1200N FG OVC001 02/02 Q1025 TEMPO 0500rn
23:47 Brakes are On
23:48 Brussels Bel-Track1.0.0.6

Comments

Commenter Comment
Giulio Di Donato

Route Map

Corporate About Us Our Team Vacancies Information Fleet Route Network Rules and Regulations Operations Flight Schedules Event Center Tours Partners IVAO Vatsim Acars dev FSCB

fb Users Online Belgium Daniel Oliveira,
1 Pilot(s) and 130 Guest(s) Online
CMS by phpVMS - Design by Crazycreatives.com - Copyright © 2019 - Brussels Airlines Virtual